sensor_id;sensor_type;location;lat;lon;timestamp;pressure;altitude;pressure_sealevel;temperature;humidity
43741;BME280;29352;48.708;9.290;2023-03-14T00:02:25;96341.81;;;1.51;100.00
43741;BME280;29352;48.708;9.290;2023-03-14T00:04:54;96331.31;;;1.16;100.00
43741;BME280;29352;48.708;9.290;2023-03-14T00:07:21;96296.38;;;1.29;100.00
43741;BME280;29352;48.708;9.290;2023-03-14T00:09:46;96269.47;;;1.20;100.00
43741;BME280;29352;48.708;9.290;2023-03-14T00:12:12;96250.25;;;1.13;100.00
43741;BME280;29352;48.708;9.290;2023-03-14T00:14:39;96283.00;;;1.17;100.00
43741;BME280;29352;48.708;9.290;2023-03-14T00:17:06;96262.28;;;1.49;100.00
43741;BME280;29352;48.708;9.290;2023-03-14T00:19:31;96248.53;;;1.53;100.00
43741;BME280;29352;48.708;9.290;2023-03-14T00:21:57;96253.34;;;1.30;99.94
43741;BME280;29352;48.708;9.290;2023-03-14T00:24:22;96268.19;;;1.51;99.46
43741;BME280;29352;48.708;9.290;2023-03-14T00:26:47;96252.19;;;1.52;98.97
43741;BME280;29352;48.708;9.290;2023-03-14T00:29:13;96240.81;;;1.38;99.18
43741;BME280;29352;48.708;9.290;2023-03-14T00:31:38;96236.03;;;1.55;98.95
43741;BME280;29352;48.708;9.290;2023-03-14T00:34:04;96235.41;;;1.60;99.11
43741;BME280;29352;48.708;9.290;2023-03-14T00:36:30;96231.59;;;1.62;97.34
43741;BME280;29352;48.708;9.290;2023-03-14T00:38:55;96233.03;;;1.78;97.10
43741;BME280;29352;48.708;9.290;2023-03-14T00:41:22;96251.03;;;1.75;97.11
43741;BME280;29352;48.708;9.290;2023-03-14T00:43:49;96243.38;;;1.93;96.29
43741;BME280;29352;48.708;9.290;2023-03-14T00:46:18;96244.19;;;1.87;95.43
43741;BME280;29352;48.708;9.290;2023-03-14T00:48:47;96242.78;;;1.91;95.40
43741;BME280;29352;48.708;9.290;2023-03-14T00:51:13;96239.34;;;2.04;95.08
43741;BME280;29352;48.708;9.290;2023-03-14T00:53:41;96237.72;;;2.03;95.54
43741;BME280;29352;48.708;9.290;2023-03-14T00:56:09;96244.19;;;1.87;95.53
43741;BME280;29352;48.708;9.290;2023-03-14T00:58:36;96245.81;;;2.08;94.99
43741;BME280;29352;48.708;9.290;2023-03-14T01:01:07;96249.47;;;1.94;94.73
43741;BME280;29352;48.708;9.290;2023-03-14T01:03:34;96251.31;;;2.20;93.85
43741;BME280;29352;48.708;9.290;2023-03-14T01:06:13;96254.34;;;2.23;93.74
43741;BME280;29352;48.708;9.290;2023-03-14T01:08:41;96259.59;;;2.10;94.25
43741;BME280;29352;48.708;9.290;2023-03-14T01:11:14;96269.09;;;2.11;94.49
43741;BME280;29352;48.708;9.290;2023-03-14T01:13:42;96265.03;;;2.08;94.65
43741;BME280;29352;48.708;9.290;2023-03-14T01:16:10;96258.78;;;2.16;94.26
43741;BME280;29352;48.708;9.290;2023-03-14T01:18:38;96256.16;;;2.16;93.34
43741;BME280;29352;48.708;9.290;2023-03-14T01:21:21;96248.84;;;2.11;93.53
43741;BME280;29352;48.708;9.290;2023-03-14T01:23:54;96247.03;;;2.25;92.94
43741;BME280;29352;48.708;9.290;2023-03-14T01:26:24;96232.66;;;2.34;92.54
43741;BME280;29352;48.708;9.290;2023-03-14T01:28:53;96218.06;;;2.45;91.15
43741;BME280;29352;48.708;9.290;2023-03-14T01:31:19;96213.22;;;2.29;91.44
43741;BME280;29352;48.708;9.290;2023-03-14T01:33:45;96218.47;;;2.35;90.86
43741;BME280;29352;48.708;9.290;2023-03-14T01:36:12;96215.03;;;2.28;91.26
43741;BME280;29352;48.708;9.290;2023-03-14T01:38:39;96214.44;;;2.26;91.34
43741;BME280;29352;48.708;9.290;2023-03-14T01:41:06;96215.03;;;2.35;90.52
43741;BME280;29352;48.708;9.290;2023-03-14T01:43:36;96205.53;;;2.21;90.88
43741;BME280;29352;48.708;9.290;2023-03-14T01:46:19;96203.91;;;2.26;90.92
43741;BME280;29352;48.708;9.290;2023-03-14T01:48:57;96193.00;;;2.09;91.76
43741;BME280;29352;48.708;9.290;2023-03-14T01:51:37;96198.84;;;2.05;91.56
43741;BME280;29352;48.708;9.290;2023-03-14T01:54:19;96180.25;;;2.06;91.26
43741;BME280;29352;48.708;9.290;2023-03-14T01:57:05;96179.03;;;1.89;91.71
43741;BME280;29352;48.708;9.290;2023-03-14T01:59:37;96172.34;;;1.86;91.68
43741;BME280;29352;48.708;9.290;2023-03-14T02:02:09;96171.53;;;1.93;91.26
43741;BME280;29352;48.708;9.290;2023-03-14T02:04:38;96165.63;;;1.77;90.81
43741;BME280;29352;48.708;9.290;2023-03-14T02:07:13;96171.09;;;1.69;91.16
43741;BME280;29352;48.708;9.290;2023-03-14T02:09:43;96168.06;;;1.79;90.96
43741;BME280;29352;48.708;9.290;2023-03-14T02:12:11;96169.69;;;1.73;91.41
43741;BME280;29352;48.708;9.290;2023-03-14T02:14:40;96171.72;;;1.58;91.75
43741;BME280;29352;48.708;9.290;2023-03-14T02:17:08;96163.22;;;1.76;91.20
43741;BME280;29352;48.708;9.290;2023-03-14T02:22:20;96165.25;;;1.54;92.21
43741;BME280;29352;48.708;9.290;2023-03-14T02:25:08;96150.44;;;1.46;92.70
43741;BME280;29352;48.708;9.290;2023-03-14T02:27:39;96145.81;;;1.48;92.35
43741;BME280;29352;48.708;9.290;2023-03-14T02:30:10;96141.75;;;1.39;92.79
43741;BME280;29352;48.708;9.290;2023-03-14T02:32:43;96138.09;;;1.53;92.40
43741;BME280;29352;48.708;9.290;2023-03-14T02:35:20;96128.81;;;1.44;92.04
43741;BME280;29352;48.708;9.290;2023-03-14T02:37:50;96132.03;;;1.53;92.46
43741;BME280;29352;48.708;9.290;2023-03-14T02:40:20;96131.25;;;1.59;91.95
43741;BME280;29352;48.708;9.290;2023-03-14T02:42:46;96142.13;;;1.36;92.13
43741;BME280;29352;48.708;9.290;2023-03-14T02:47:40;96127.00;;;1.45;92.01
43741;BME280;29352;48.708;9.290;2023-03-14T02:50:13;96118.91;;;1.66;91.93
43741;BME280;29352;48.708;9.290;2023-03-14T02:52:43;96131.47;;;1.57;91.97
43741;BME280;29352;48.708;9.290;2023-03-14T02:55:09;96115.66;;;1.71;91.55
43741;BME280;29352;48.708;9.290;2023-03-14T02:57:34;96103.53;;;1.56;91.98
43741;BME280;29352;48.708;9.290;2023-03-14T03:00:01;96101.69;;;1.57;92.13
43741;BME280;29352;48.708;9.290;2023-03-14T03:02:31;96097.69;;;1.48;91.76
43741;BME280;29352;48.708;9.290;2023-03-14T03:04:57;96095.03;;;1.34;92.14
43741;BME280;29352;48.708;9.290;2023-03-14T03:07:23;96082.09;;;1.39;92.10
43741;BME280;29352;48.708;9.290;2023-03-14T03:09:49;96094.00;;;1.29;92.54
43741;BME280;29352;48.708;9.290;2023-03-14T03:12:15;96099.50;;;1.40;92.37
43741;BME280;29352;48.708;9.290;2023-03-14T03:14:40;96085.94;;;1.30;92.04
43741;BME280;29352;48.708;9.290;2023-03-14T03:17:06;96080.28;;;1.40;91.31
43741;BME280;29352;48.708;9.290;2023-03-14T03:19:33;96059.25;;;1.47;91.06
43741;BME280;29352;48.708;9.290;2023-03-14T03:21:59;96062.06;;;1.38;91.03
43741;BME280;29352;48.708;9.290;2023-03-14T03:24:25;96056.41;;;1.35;90.72
43741;BME280;29352;48.708;9.290;2023-03-14T03:26:52;96058.03;;;1.42;90.58
43741;BME280;29352;48.708;9.290;2023-03-14T03:29:17;96057.03;;;1.17;90.36
43741;BME280;29352;48.708;9.290;2023-03-14T03:31:43;96061.66;;;1.15;90.39
43741;BME280;29352;48.708;9.290;2023-03-14T03:34:11;96049.72;;;1.39;89.16
43741;BME280;29352;48.708;9.290;2023-03-14T03:36:40;96047.31;;;1.44;88.85
43741;BME280;29352;48.708;9.290;2023-03-14T03:39:06;96040.47;;;1.36;88.77
43741;BME280;29352;48.708;9.290;2023-03-14T03:41:33;96035.78;;;1.38;88.96
43741;BME280;29352;48.708;9.290;2023-03-14T03:43:59;96028.91;;;1.44;88.90
43741;BME280;29352;48.708;9.290;2023-03-14T03:46:24;96029.53;;;1.26;88.82
43741;BME280;29352;48.708;9.290;2023-03-14T03:48:58;96036.63;;;1.19;89.31
43741;BME280;29352;48.708;9.290;2023-03-14T03:51:25;96029.31;;;1.21;89.13
43741;BME280;29352;48.708;9.290;2023-03-14T03:53:51;96023.66;;;1.37;88.70
43741;BME280;29352;48.708;9.290;2023-03-14T03:56:17;96023.03;;;1.22;87.59
43741;BME280;29352;48.708;9.290;2023-03-14T03:58:43;96030.34;;;1.27;87.12
43741;BME280;29352;48.708;9.290;2023-03-14T04:01:09;96034.97;;;1.18;88.00
43741;BME280;29352;48.708;9.290;2023-03-14T04:03:38;96022.84;;;1.17;87.64
43741;BME280;29352;48.708;9.290;2023-03-14T04:06:12;96027.50;;;1.28;87.09
43741;BME280;29352;48.708;9.290;2023-03-14T04:08:38;96020.00;;;1.25;86.79
43741;BME280;29352;48.708;9.290;2023-03-14T04:11:06;96021.84;;;1.11;87.32
43741;BME280;29352;48.708;9.290;2023-03-14T04:13:31;96019.84;;;1.20;86.83
43741;BME280;29352;48.708;9.290;2023-03-14T04:15:57;96026.50;;;1.23;86.56
43741;BME280;29352;48.708;9.290;2023-03-14T04:18:23;96022.66;;;1.05;86.34
43741;BME280;29352;48.708;9.290;2023-03-14T04:20:55;96023.25;;;1.01;85.99
43741;BME280;29352;48.708;9.290;2023-03-14T04:23:22;96018.19;;;1.32;85.63
43741;BME280;29352;48.708;9.290;2023-03-14T04:25:52;96025.28;;;1.18;85.53
43741;BME280;29352;48.708;9.290;2023-03-14T04:28:19;96028.91;;;1.17;86.06
43741;BME280;29352;48.708;9.290;2023-03-14T04:30:45;96026.91;;;1.13;85.46
43741;BME280;29352;48.708;9.290;2023-03-14T04:33:10;96027.69;;;1.00;86.01
43741;BME280;29352;48.708;9.290;2023-03-14T04:35:38;96017.59;;;1.04;86.47
43741;BME280;29352;48.708;9.290;2023-03-14T04:38:03;96008.69;;;0.78;87.02
43741;BME280;29352;48.708;9.290;2023-03-14T04:40:29;96009.72;;;1.04;86.73
43741;BME280;29352;48.708;9.290;2023-03-14T04:42:54;96012.34;;;1.04;86.71
43741;BME280;29352;48.708;9.290;2023-03-14T04:45:20;96003.84;;;0.88;86.65
43741;BME280;29352;48.708;9.290;2023-03-14T04:47:46;96003.44;;;1.18;85.73
43741;BME280;29352;48.708;9.290;2023-03-14T04:50:11;95994.97;;;1.03;85.73
43741;BME280;29352;48.708;9.290;2023-03-14T04:52:36;96001.03;;;1.10;85.46
43741;BME280;29352;48.708;9.290;2023-03-14T04:55:02;95996.97;;;1.01;85.72
43741;BME280;29352;48.708;9.290;2023-03-14T04:57:28;95992.56;;;0.94;84.97
43741;BME280;29352;48.708;9.290;2023-03-14T04:59:53;95995.38;;;1.13;84.81
43741;BME280;29352;48.708;9.290;2023-03-14T05:02:18;95990.91;;;1.20;84.33
43741;BME280;29352;48.708;9.290;2023-03-14T05:04:44;95988.88;;;1.22;84.33
43741;BME280;29352;48.708;9.290;2023-03-14T05:07:09;95978.97;;;0.98;84.06
43741;BME280;29352;48.708;9.290;2023-03-14T05:09:35;95973.16;;;0.95;84.00
43741;BME280;29352;48.708;9.290;2023-03-14T05:12:00;95977.59;;;1.02;84.00
43741;BME280;29352;48.708;9.290;2023-03-14T05:14:26;95970.91;;;0.86;84.29
43741;BME280;29352;48.708;9.290;2023-03-14T05:16:51;95969.31;;;0.91;83.93
43741;BME280;29352;48.708;9.290;2023-03-14T05:19:17;95966.47;;;1.00;83.37
43741;BME280;29352;48.708;9.290;2023-03-14T05:21:42;95962.63;;;0.89;83.46
43741;BME280;29352;48.708;9.290;2023-03-14T05:24:08;95961.41;;;1.05;82.97
43741;BME280;29352;48.708;9.290;2023-03-14T05:26:33;95959.41;;;1.07;82.79
43741;BME280;29352;48.708;9.290;2023-03-14T05:28:58;95961.81;;;1.15;82.54
43741;BME280;29352;48.708;9.290;2023-03-14T05:31:24;95964.06;;;0.98;82.88
43741;BME280;29352;48.708;9.290;2023-03-14T05:33:49;95953.34;;;1.00;82.71
43741;BME280;29352;48.708;9.290;2023-03-14T05:36:15;95954.53;;;0.97;82.63
43741;BME280;29352;48.708;9.290;2023-03-14T05:38:40;95952.53;;;0.92;82.59
43741;BME280;29352;48.708;9.290;2023-03-14T05:41:06;95955.56;;;1.03;82.60
43741;BME280;29352;48.708;9.290;2023-03-14T05:43:31;95953.16;;;0.94;82.50
43741;BME280;29352;48.708;9.290;2023-03-14T05:45:56;95959.78;;;1.10;82.00
43741;BME280;29352;48.708;9.290;2023-03-14T05:48:22;95949.28;;;1.04;82.05
43741;BME280;29352;48.708;9.290;2023-03-14T05:50:48;95948.66;;;1.28;81.36
43741;BME280;29352;48.708;9.290;2023-03-14T05:53:14;95944.81;;;1.31;81.25
43741;BME280;29352;48.708;9.290;2023-03-14T05:55:40;95933.69;;;1.22;81.29
43741;BME280;29352;48.708;9.290;2023-03-14T05:58:05;95931.09;;;1.15;80.80
43741;BME280;29352;48.708;9.290;2023-03-14T06:00:31;95927.88;;;1.00;81.50
43741;BME280;29352;48.708;9.290;2023-03-14T06:02:57;95920.38;;;1.04;80.72
43741;BME280;29352;48.708;9.290;2023-03-14T06:05:22;95926.25;;;1.06;80.84
43741;BME280;29352;48.708;9.290;2023-03-14T06:07:48;95924.84;;;1.03;80.97
43741;BME280;29352;48.708;9.290;2023-03-14T06:10:13;95934.72;;;1.21;80.72
43741;BME280;29352;48.708;9.290;2023-03-14T06:12:39;95936.53;;;1.27;80.33
43741;BME280;29352;48.708;9.290;2023-03-14T06:15:05;95933.69;;;1.29;80.01
43741;BME280;29352;48.708;9.290;2023-03-14T06:17:31;95933.28;;;1.38;79.48
43741;BME280;29352;48.708;9.290;2023-03-14T06:19:56;95939.16;;;1.40;79.74
43741;BME280;29352;48.708;9.290;2023-03-14T06:22:22;95935.50;;;1.41;79.90
43741;BME280;29352;48.708;9.290;2023-03-14T06:24:47;95931.41;;;1.52;78.72
43741;BME280;29352;48.708;9.290;2023-03-14T06:27:13;95934.69;;;1.34;79.21
43741;BME280;29352;48.708;9.290;2023-03-14T06:29:38;95937.88;;;1.50;79.17
43741;BME280;29352;48.708;9.290;2023-03-14T06:32:04;95940.06;;;1.66;78.59
43741;BME280;29352;48.708;9.290;2023-03-14T06:34:30;95943.50;;;1.73;77.53
43741;BME280;29352;48.708;9.290;2023-03-14T06:36:55;95944.91;;;1.76;78.07
43741;BME280;29352;48.708;9.290;2023-03-14T06:39:21;95941.53;;;2.20;76.68
43741;BME280;29352;48.708;9.290;2023-03-14T06:41:46;95937.81;;;1.83;77.23
43741;BME280;29352;48.708;9.290;2023-03-14T06:44:11;95936.19;;;1.95;77.20
43741;BME280;29352;48.708;9.290;2023-03-14T06:46:37;95931.34;;;1.92;76.62
43741;BME280;29352;48.708;9.290;2023-03-14T06:49:02;95936.59;;;1.92;77.46
43741;BME280;29352;48.708;9.290;2023-03-14T06:51:28;95925.88;;;2.89;76.11
43741;BME280;29352;48.708;9.290;2023-03-14T06:53:53;95933.63;;;3.89;73.97
43741;BME280;29352;48.708;9.290;2023-03-14T06:56:18;95926.44;;;3.59;72.76
43741;BME280;29352;48.708;9.290;2023-03-14T06:58:44;95925.66;;;2.90;74.68
43741;BME280;29352;48.708;9.290;2023-03-14T07:01:30;95921.84;;;2.86;75.11
43741;BME280;29352;48.708;9.290;2023-03-14T07:03:57;95932.97;;;3.13;74.35
43741;BME280;29352;48.708;9.290;2023-03-14T07:06:23;95922.94;;;3.84;72.29
43741;BME280;29352;48.708;9.290;2023-03-14T07:08:50;95935.81;;;4.70;69.73
43741;BME280;29352;48.708;9.290;2023-03-14T07:11:16;95932.44;;;4.33;70.22
43741;BME280;29352;48.708;9.290;2023-03-14T07:13:42;95933.03;;;3.50;71.68
43741;BME280;29352;48.708;9.290;2023-03-14T07:16:08;95937.28;;;3.88;72.61
43741;BME280;29352;48.708;9.290;2023-03-14T07:18:34;95929.63;;;4.77;69.53
43741;BME280;29352;48.708;9.290;2023-03-14T07:20:59;95932.31;;;5.47;68.45
43741;BME280;29352;48.708;9.290;2023-03-14T07:23:25;95932.06;;;4.90;68.68
43741;BME280;29352;48.708;9.290;2023-03-14T07:25:50;95944.53;;;4.71;69.54
43741;BME280;29352;48.708;9.290;2023-03-14T07:28:16;95940.34;;;5.40;69.64
43741;BME280;29352;48.708;9.290;2023-03-14T07:30:42;95934.16;;;4.58;71.27
43741;BME280;29352;48.708;9.290;2023-03-14T07:33:08;95942.78;;;4.53;69.94
43741;BME280;29352;48.708;9.290;2023-03-14T07:35:33;95941.75;;;5.19;67.47
43741;BME280;29352;48.708;9.290;2023-03-14T07:37:59;95945.22;;;7.27;64.11
43741;BME280;29352;48.708;9.290;2023-03-14T07:40:24;95943.59;;;5.66;65.96
43741;BME280;29352;48.708;9.290;2023-03-14T07:42:50;95952.91;;;6.21;65.67
43741;BME280;29352;48.708;9.290;2023-03-14T07:45:15;95938.94;;;6.99;63.42
43741;BME280;29352;48.708;9.290;2023-03-14T07:47:41;95948.03;;;6.58;63.43
43741;BME280;29352;48.708;9.290;2023-03-14T07:50:07;95955.56;;;6.49;63.70
43741;BME280;29352;48.708;9.290;2023-03-14T07:52:33;95945.41;;;5.54;64.98
43741;BME280;29352;48.708;9.290;2023-03-14T07:54:59;95943.13;;;5.81;65.00
43741;BME280;29352;48.708;9.290;2023-03-14T07:57:25;95949.78;;;7.87;60.93
43741;BME280;29352;48.708;9.290;2023-03-14T07:59:50;95943.94;;;9.53;57.28
43741;BME280;29352;48.708;9.290;2023-03-14T08:02:15;95943.31;;;10.40;54.97
43741;BME280;29352;48.708;9.290;2023-03-14T08:04:42;95942.81;;;11.92;53.40
43741;BME280;29352;48.708;9.290;2023-03-14T08:07:07;95942.13;;;11.35;53.92
43741;BME280;29352;48.708;9.290;2023-03-14T08:09:33;95946.09;;;10.92;54.28
43741;BME280;29352;48.708;9.290;2023-03-14T08:11:58;95949.19;;;10.37;55.91
43741;BME280;29352;48.708;9.290;2023-03-14T08:14:24;95944.78;;;8.62;58.11
43741;BME280;29352;48.708;9.290;2023-03-14T08:16:50;95948.84;;;8.91;57.23
43741;BME280;29352;48.708;9.290;2023-03-14T08:19:16;95941.22;;;8.02;58.98
43741;BME280;29352;48.708;9.290;2023-03-14T08:21:41;95926.66;;;9.55;56.38
43741;BME280;29352;48.708;9.290;2023-03-14T08:24:07;95933.03;;;11.21;55.01
43741;BME280;29352;48.708;9.290;2023-03-14T08:26:33;95924.63;;;10.35;54.19
43741;BME280;29352;48.708;9.290;2023-03-14T08:28:59;95923.16;;;10.96;53.84
43741;BME280;29352;48.708;9.290;2023-03-14T08:31:24;95930.06;;;10.51;55.57
43741;BME280;29352;48.708;9.290;2023-03-14T08:33:50;95932.13;;;9.01;56.11
43741;BME280;29352;48.708;9.290;2023-03-14T08:36:18;95939.13;;;9.44;57.63
43741;BME280;29352;48.708;9.290;2023-03-14T08:38:45;95931.94;;;11.32;53.46
43741;BME280;29352;48.708;9.290;2023-03-14T08:41:10;95938.06;;;10.81;53.86
43741;BME280;29352;48.708;9.290;2023-03-14T08:43:36;95921.50;;;10.54;53.12
43741;BME280;29352;48.708;9.290;2023-03-14T08:46:02;95928.75;;;10.69;54.07
43741;BME280;29352;48.708;9.290;2023-03-14T08:48:29;95934.09;;;9.95;55.33
43741;BME280;29352;48.708;9.290;2023-03-14T08:53:50;95923.97;;;9.98;53.42
43741;BME280;29352;48.708;9.290;2023-03-14T08:56:16;95906.66;;;10.00;52.35
43741;BME280;29352;48.708;9.290;2023-03-14T08:58:42;95930.44;;;8.90;54.42
43741;BME280;29352;48.708;9.290;2023-03-14T09:01:10;95912.72;;;7.97;55.43
43741;BME280;29352;48.708;9.290;2023-03-14T09:03:36;95936.97;;;7.45;56.41
43741;BME280;29352;48.708;9.290;2023-03-14T09:06:03;95951.94;;;8.83;55.41
43741;BME280;29352;48.708;9.290;2023-03-14T09:08:34;95948.91;;;8.47;55.02
43741;BME280;29352;48.708;9.290;2023-03-14T09:11:00;95943.66;;;8.80;55.35
43741;BME280;29352;48.708;9.290;2023-03-14T09:13:26;95952.44;;;9.44;55.10
43741;BME280;29352;48.708;9.290;2023-03-14T09:15:52;95962.63;;;8.88;56.21
43741;BME280;29352;48.708;9.290;2023-03-14T09:18:18;95971.69;;;9.19;55.49
43741;BME280;29352;48.708;9.290;2023-03-14T09:20:44;95978.66;;;10.15;54.62
43741;BME280;29352;48.708;9.290;2023-03-14T09:23:10;95966.38;;;10.04;54.22
43741;BME280;29352;48.708;9.290;2023-03-14T09:25:35;95967.91;;;9.53;55.08
43741;BME280;29352;48.708;9.290;2023-03-14T09:28:00;95976.25;;;8.92;56.55
43741;BME280;29352;48.708;9.290;2023-03-14T09:30:26;95985.91;;;10.20;55.06
43741;BME280;29352;48.708;9.290;2023-03-14T09:32:51;95979.50;;;10.26;54.14
43741;BME280;29352;48.708;9.290;2023-03-14T09:35:17;95979.41;;;10.63;53.95
43741;BME280;29352;48.708;9.290;2023-03-14T09:37:42;95980.75;;;10.71;52.73
43741;BME280;29352;48.708;9.290;2023-03-14T09:40:12;95986.63;;;10.68;53.41
43741;BME280;29352;48.708;9.290;2023-03-14T09:42:40;95990.63;;;10.03;54.43
43741;BME280;29352;48.708;9.290;2023-03-14T09:45:44;95993.66;;;9.74;54.81
43741;BME280;29352;48.708;9.290;2023-03-14T09:48:11;95994.28;;;8.90;55.67
43741;BME280;29352;48.708;9.290;2023-03-14T09:50:46;96016.03;;;8.82;56.39
43741;BME280;29352;48.708;9.290;2023-03-14T09:53:18;96026.19;;;7.46;57.95
43741;BME280;29352;48.708;9.290;2023-03-14T09:55:49;96024.38;;;6.73;59.29
43741;BME280;29352;48.708;9.290;2023-03-14T09:58:23;96022.41;;;6.80;59.77
43741;BME280;29352;48.708;9.290;2023-03-14T10:00:50;96023.16;;;6.92;59.84
43741;BME280;29352;48.708;9.290;2023-03-14T10:03:40;96016.50;;;6.09;60.53
43741;BME280;29352;48.708;9.290;2023-03-14T10:06:13;96024.31;;;6.15;60.84
43741;BME280;29352;48.708;9.290;2023-03-14T10:08:43;96022.75;;;5.91;61.61
43741;BME280;29352;48.708;9.290;2023-03-14T10:11:19;96028.03;;;6.03;62.02
43741;BME280;29352;48.708;9.290;2023-03-14T10:14:01;96017.13;;;5.87;62.47
43741;BME280;29352;48.708;9.290;2023-03-14T10:16:46;96010.22;;;5.86;64.67
43741;BME280;29352;48.708;9.290;2023-03-14T10:19:14;96010.69;;;5.83;65.70
43741;BME280;29352;48.708;9.290;2023-03-14T10:21:43;96000.50;;;6.73;64.50
43741;BME280;29352;48.708;9.290;2023-03-14T10:24:26;95983.31;;;7.54;62.45
43741;BME280;29352;48.708;9.290;2023-03-14T10:27:18;95997.16;;;7.40;62.30
43741;BME280;29352;48.708;9.290;2023-03-14T10:29:57;95977.69;;;7.00;62.18
43741;BME280;29352;48.708;9.290;2023-03-14T10:32:34;95973.50;;;7.21;61.75
43741;BME280;29352;48.708;9.290;2023-03-14T10:37:57;95981.69;;;6.57;61.72
43741;BME280;29352;48.708;9.290;2023-03-14T10:40:37;95978.00;;;6.87;62.24
43741;BME280;29352;48.708;9.290;2023-03-14T10:43:07;95986.63;;;6.94;61.94
43741;BME280;29352;48.708;9.290;2023-03-14T10:45:43;95981.72;;;7.20;61.25
43741;BME280;29352;48.708;9.290;2023-03-14T10:48:22;95981.84;;;6.96;60.43
43741;BME280;29352;48.708;9.290;2023-03-14T10:53:58;95981.88;;;6.39;60.90
43741;BME280;29352;48.708;9.290;2023-03-14T10:56:36;95996.16;;;5.98;61.09
43741;BME280;29352;48.708;9.290;2023-03-14T10:59:06;95989.81;;;5.63;62.53
43741;BME280;29352;48.708;9.290;2023-03-14T11:07:26;96007.97;;;5.48;65.94
43741;BME280;29352;48.708;9.290;2023-03-14T11:10:07;96004.81;;;4.92;65.80
43741;BME280;29352;48.708;9.290;2023-03-14T11:12:55;96012.31;;;5.07;65.85
43741;BME280;29352;48.708;9.290;2023-03-14T11:16:06;96012.00;;;5.15;65.01
43741;BME280;29352;48.708;9.290;2023-03-14T11:24:31;96027.59;;;4.93;67.23
43741;BME280;29352;48.708;9.290;2023-03-14T11:27:17;96021.63;;;4.68;67.40
43741;BME280;29352;48.708;9.290;2023-03-14T11:38:28;96051.66;;;4.18;71.79
43741;BME280;29352;48.708;9.290;2023-03-14T11:41:01;96049.69;;;4.14;72.79
43741;BME280;29352;48.708;9.290;2023-03-14T11:43:37;96053.28;;;4.01;72.01
43741;BME280;29352;48.708;9.290;2023-03-14T11:46:19;96057.53;;;4.20;72.74
43741;BME280;29352;48.708;9.290;2023-03-14T11:51:44;96057.38;;;3.97;74.51
43741;BME280;29352;48.708;9.290;2023-03-14T11:54:42;96069.28;;;4.24;75.42
43741;BME280;29352;48.708;9.290;2023-03-14T11:57:29;96060.16;;;3.84;74.85
43741;BME280;29352;48.708;9.290;2023-03-14T12:03:21;96074.09;;;3.91;73.46
43741;BME280;29352;48.708;9.290;2023-03-14T12:08:55;96076.44;;;3.99;72.03
43741;BME280;29352;48.708;9.290;2023-03-14T12:14:02;96099.06;;;3.88;72.47
43741;BME280;29352;48.708;9.290;2023-03-14T12:16:38;96090.53;;;3.93;73.08
43741;BME280;29352;48.708;9.290;2023-03-14T12:19:34;96114.09;;;3.88;74.70
43741;BME280;29352;48.708;9.290;2023-03-14T12:22:32;96131.91;;;3.92;74.10
43741;BME280;29352;48.708;9.290;2023-03-14T12:35:39;96148.59;;;4.91;72.43
43741;BME280;29352;48.708;9.290;2023-03-14T12:38:15;96147.91;;;4.96;70.16
43741;BME280;29352;48.708;9.290;2023-03-14T12:41:17;96172.91;;;4.63;68.24
43741;BME280;29352;48.708;9.290;2023-03-14T12:43:49;96196.31;;;4.60;66.22
43741;BME280;29352;48.708;9.290;2023-03-14T12:49:03;96206.91;;;4.35;63.28
43741;BME280;29352;48.708;9.290;2023-03-14T12:51:42;96217.97;;;4.25;62.96
43741;BME280;29352;48.708;9.290;2023-03-14T12:57:21;96236.72;;;4.17;64.04
43741;BME280;29352;48.708;9.290;2023-03-14T13:00:00;96245.00;;;4.70;64.04
43741;BME280;29352;48.708;9.290;2023-03-14T13:02:49;96254.28;;;4.30;61.91
43741;BME280;29352;48.708;9.290;2023-03-14T13:05:23;96270.06;;;4.36;58.31
43741;BME280;29352;48.708;9.290;2023-03-14T13:10:19;96290.59;;;4.09;58.02
43741;BME280;29352;48.708;9.290;2023-03-14T13:15:27;96300.81;;;4.31;56.68
43741;BME280;29352;48.708;9.290;2023-03-14T13:21:13;96321.81;;;4.19;56.02
43741;BME280;29352;48.708;9.290;2023-03-14T13:24:01;96340.19;;;4.32;56.59
43741;BME280;29352;48.708;9.290;2023-03-14T13:26:36;96349.34;;;4.30;55.79
43741;BME280;29352;48.708;9.290;2023-03-14T13:29:20;96358.06;;;3.98;54.20
43741;BME280;29352;48.708;9.290;2023-03-14T13:31:50;96359.03;;;3.72;54.51
43741;BME280;29352;48.708;9.290;2023-03-14T13:34:19;96370.56;;;3.06;54.75
43741;BME280;29352;48.708;9.290;2023-03-14T13:36:44;96387.59;;;3.04;54.86
43741;BME280;29352;48.708;9.290;2023-03-14T13:39:16;96397.53;;;2.69;56.91
43741;BME280;29352;48.708;9.290;2023-03-14T13:41:43;96409.09;;;2.88;54.75
43741;BME280;29352;48.708;9.290;2023-03-14T13:44:17;96415.56;;;2.58;54.69
43741;BME280;29352;48.708;9.290;2023-03-14T13:46:49;96429.34;;;2.80;54.96
43741;BME280;29352;48.708;9.290;2023-03-14T13:49:24;96434.63;;;2.87;54.17
43741;BME280;29352;48.708;9.290;2023-03-14T13:51:51;96447.81;;;3.14;54.64
43741;BME280;29352;48.708;9.290;2023-03-14T13:54:19;96456.91;;;2.78;54.95
43741;BME280;29352;48.708;9.290;2023-03-14T13:56:46;96424.72;;;2.96;54.27
43741;BME280;29352;48.708;9.290;2023-03-14T13:59:27;96462.59;;;2.81;54.52
43741;BME280;29352;48.708;9.290;2023-03-14T14:01:57;96483.91;;;3.26;54.00
43741;BME280;29352;48.708;9.290;2023-03-14T14:04:26;96484.91;;;3.12;52.24
43741;BME280;29352;48.708;9.290;2023-03-14T14:06:56;96497.03;;;2.67;52.22
43741;BME280;29352;48.708;9.290;2023-03-14T14:09:37;96504.66;;;2.42;52.48
43741;BME280;29352;48.708;9.290;2023-03-14T14:12:18;96509.84;;;2.15;51.81
43741;BME280;29352;48.708;9.290;2023-03-14T14:17:54;96551.88;;;2.02;52.41
43741;BME280;29352;48.708;9.290;2023-03-14T14:20:32;96562.34;;;1.67;53.53
43741;BME280;29352;48.708;9.290;2023-03-14T14:25:58;96571.00;;;2.17;51.15
43741;BME280;29352;48.708;9.290;2023-03-14T14:33:44;96561.47;;;1.81;51.77
43741;BME280;29352;48.708;9.290;2023-03-14T14:36:21;96581.25;;;1.77;52.32
43741;BME280;29352;48.708;9.290;2023-03-14T14:38:57;96587.16;;;2.07;52.00
43741;BME280;29352;48.708;9.290;2023-03-14T14:41:33;96596.88;;;2.07;51.65
43741;BME280;29352;48.708;9.290;2023-03-14T14:44:03;96600.81;;;2.24;51.31
43741;BME280;29352;48.708;9.290;2023-03-14T14:46:32;96599.00;;;2.31;51.70